Flight Track Log - Related Links

Times and Time Zones

All times are in EST time to prevent confusion due to time zone crossing. See the EJA929 flight status page for this flight to view local times or setup timezone preferences in your user account.

Time Position Orientation Groundspeed Altitude Reporting Facility
EST Latitude Longitude Course Direction KTS MPH feet Rate Location/Type
Thu 05:30:47 PM 37.9589 -107.9344 73° East 192 221 9,700  Level Denver Center
Thu 05:31:49 PM 37.9744 -108.0061 285° West 210 242 13,400 3,532 Climbing Denver Center
Thu 05:32:51 PM 38.0069 -108.0817 299° West 255 293 17,000 2,226 Climbing Denver Center
Thu 05:33:53 PM 38.0706 -107.9986 46° Northeast 343 395 18,000 2,903 Climbing Denver Center
Thu 05:34:00 PM 38.1118 -107.0791 90° East  Level Estimated
Thu 05:34:55 PM 38.0903 -107.8894 77° East 320 368 23,000  Level Denver Center
Thu 05:35:00 PM 38.1427 -106.9127 76° East  Level Estimated
Thu 05:35:57 PM 38.1067 -107.7978 77° East 288 331 26,000  Level Denver Center
Thu 05:36:00 PM 38.1734 -106.7462 73° East  Level Estimated
Thu 05:36:59 PM 38.1308 -107.6606 77° East 355 409 26,700  Level Denver Center
Thu 05:38:01 PM 38.1536 -107.5297 77° East 390 449 28,500 2,544 Climbing Denver Center
Thu 05:39:04 PM 38.1811 -107.3711 78° East 409 471 32,000 3,216 Climbing Denver Center
Thu 05:40:06 PM 38.2019 -107.2483 78° East 379 436 35,200 2,032 Climbing Denver Center
Thu 05:41:08 PM 38.2242 -107.1236 77° East 378 435 36,200 1,016 Climbing Denver Center
Thu 05:42:10 PM 38.2525 -106.9444 79° East 425 489 37,300 1,016 Climbing Denver Center
Thu 05:43:12 PM 38.2803 -106.7814 78° East 450 518 38,300 919 Climbing Denver Center
Thu 05:44:14 PM 38.3064 -106.6242 78° East 469 540 39,200 919 Climbing Denver Center
Thu 05:45:16 PM 38.3331 -106.4583 78° East 478 550 40,200 871 Climbing Denver Center
Thu 05:46:18 PM 38.3606 -106.2897 78° East 486 559 41,000 387 Climbing Denver Center
Thu 05:47:20 PM 38.3900 -106.1064 78° East 486 559 41,000  Level Denver Center
Thu 05:48:23 PM 38.4194 -105.9228 78° East 476 548 41,000  Level Denver Center
Thu 05:49:24 PM 38.4453 -105.7578 79° East 474 545 41,000  Level Denver Center
Thu 05:50:26 PM 38.4708 -105.5922 79° East 477 549 41,000  Level Denver Center
Thu 05:51:29 PM 38.4972 -105.4242 79° East 482 555 41,000  Level Denver Center
Thu 05:52:31 PM 38.5233 -105.2539 79° East 488 562 41,000 48 Level Denver Center
Thu 05:53:33 PM 38.5539 -105.0483 79° East 493 567 41,100  Climbing Denver Center
Thu 05:54:35 PM 38.5797 -104.8761 79° East 495 570 41,000 -48 Descending Denver Center
Thu 05:55:37 PM 38.6056 -104.7025 79° East 499 574 41,000  Level Denver Center
Thu 05:56:39 PM 38.6319 -104.5253 79° East 506 582 41,000  Level Denver Center
Thu 05:57:41 PM 38.6561 -104.3525 80° East 501 577 41,000  Level Denver Center
Thu 05:58:43 PM 38.6869 -104.1456 79° East 498 573 41,000  Level Denver Center
Thu 05:59:45 PM 38.7106 -103.9706 80° East 495 570 41,000  Level Denver Center
Thu 06:00:47 PM 38.7328 -103.8050 80° East 492 566 41,000  Level Denver Center
Thu 06:01:49 PM 38.7597 -103.6100 80° East 496 571 41,000  Level Denver Center
Thu 06:02:51 PM 38.7831 -103.4442 80° East 493 567 41,000  Level Denver Center
Thu 06:03:54 PM 38.8050 -103.2831 80° East 496 571 41,000  Level Denver Center
Thu 06:04:56 PM 38.8331 -103.0733 80° East 499 574 41,000  Level Denver Center
Thu 06:05:58 PM 38.8544 -102.8992 81° East 498 573 41,000  Level Denver Center
Thu 06:07:00 PM 38.8811 -102.7044 80° East 501 577 41,000  Level Denver Center
Thu 06:08:02 PM 38.9017 -102.5369 81° East 499 574 41,000  Level Denver Center
Thu 06:09:04 PM 38.9242 -102.3694 80° East 498 573 41,000  Level Denver Center
Thu 06:10:06 PM 38.9472 -102.1728 81° East 499 574 41,000  Level Denver Center
Thu 06:11:08 PM 38.9681 -102.0042 81° East 498 573 41,000  Level Denver Center
Thu 06:12:10 PM 38.9933 -101.8078 81° East 497 572 41,000  Level Denver Center
Thu 06:13:12 PM 39.0122 -101.6400 82° East 496 571 41,000  Level Denver Center
Thu 06:14:14 PM 39.0358 -101.4458 81° East 492 566 41,000  Level Denver Center
Thu 06:15:17 PM 39.0564 -101.2767 81° East 493 567 41,000  Level Denver Center
Thu 06:16:19 PM 39.0778 -101.0836 82° East 491 565 41,000  Level Denver Center
Thu 06:17:21 PM 39.0972 -100.9158 81° East 494 568 41,000  Level Denver Center
Thu 06:18:23 PM 39.1189 -100.7214 82° East 494 568 41,000  Level Denver Center
Thu 06:19:25 PM 39.1372 -100.5539 82° East 493 567 41,000  Level Denver Center
Thu 06:20:27 PM 39.1583 -100.3581 82° East 495 570 41,000  Level Denver Center
Thu 06:21:29 PM 39.1758 -100.1928 82° East 491 565 41,000  Level Denver Center
Thu 06:22:31 PM 39.1972 -99.9986 82° East 490 564 41,000  Level Denver Center
Thu 06:23:33 PM 39.2150 -99.8267 82° East 495 570 41,000  Level Denver Center
Thu 06:24:35 PM 39.2339 -99.6361 83° East 491 565 41,000  Level Denver Center
Thu 06:25:37 PM 39.2506 -99.4678 83° East 494 568 41,000  Level Denver Center
Thu 06:26:40 PM 39.2703 -99.2692 83° East 499 574 41,000  Level Denver Center
Thu 06:27:42 PM 39.2861 -99.1006 83° East 498 573 41,000  Level Denver Center
Thu 06:28:44 PM 39.3056 -98.9075 83° East 502 578 41,000  Level Denver Center
Thu 06:30:03 PM 39.3267 -98.6797 83° East 502 578 41,000  Level Kansas City Center
Thu 06:31:04 PM 39.3417 -98.5111 83° East 508 585 41,000  Level Kansas City Center
Thu 06:32:06 PM 39.3622 -98.2922 83° East 512 589 41,000  Level Kansas City Center
Thu 06:33:08 PM 39.3778 -98.1264 83° East 512 589 41,000  Level Kansas City Center
Thu 06:34:10 PM 39.3958 -97.9217 83° East 514 592 41,000  Level Kansas City Center
Thu 06:35:11 PM 39.4106 -97.7428 84° East 516 594 41,000  Level Kansas City Center
Thu 06:36:13 PM 39.4261 -97.5597 84° East 514 592 41,000  Level Kansas City Center
Thu 06:37:15 PM 39.4428 -97.3647 84° East 513 590 41,000  Level Kansas City Center
Thu 06:38:17 PM 39.4569 -97.1894 84° East 512 589 41,000  Level Kansas City Center
Thu 06:39:18 PM 39.4728 -96.9836 84° East 514 592 41,000  Level Kansas City Center
Thu 06:40:20 PM 39.4867 -96.8072 84° East 515 593 41,000  Level Kansas City Center
Thu 06:41:22 PM 39.5031 -96.6000 84° East 517 595 41,000  Level Kansas City Center
Thu 06:42:23 PM 39.5142 -96.4414 85° East 518 596 41,000  Level Kansas City Center
Thu 06:43:25 PM 39.5311 -96.2139 84° East 520 598 41,000  Level Kansas City Center
Thu 06:44:27 PM 39.5433 -96.0353 85° East 518 596 41,000  Level Kansas City Center
Thu 06:45:29 PM 39.5553 -95.8575 85° East 517 595 41,000  Level Kansas City Center
Thu 06:46:30 PM 39.5683 -95.6483 85° East 518 596 41,000  Level Kansas City Center
Thu 06:47:32 PM 39.5797 -95.4692 85° East 518 596 41,000  Level Kansas City Center
Thu 06:48:34 PM 39.5914 -95.2886 85° East 519 597 41,000  Level Kansas City Center
Thu 06:49:36 PM 39.6047 -95.0794 85° East 519 597 41,000  Level Kansas City Center
Thu 06:50:37 PM 39.6153 -94.8994 86° East 519 597 41,000  Level Kansas City Center
Thu 06:51:39 PM 39.6292 -94.6892 85° East 521 600 41,000  Level Kansas City Center
Thu 06:52:41 PM 39.6389 -94.5078 86° East 523 602 41,000  Level Kansas City Center
Thu 06:53:42 PM 39.6492 -94.3258 86° East 526 605 41,000  Level Kansas City Center
Thu 06:54:44 PM 39.6608 -94.1153 86° East 524 603 41,000  Level Kansas City Center
Thu 06:55:46 PM 39.6711 -93.9344 86° East 525 604 41,000  Level Kansas City Center
Thu 06:56:48 PM 39.6817 -93.7303 86° East 526 605 41,000  Level Kansas City Center
Thu 06:57:49 PM 39.6906 -93.5425 86° East 527 606 41,000  Level Kansas City Center
Thu 06:58:51 PM 39.6992 -93.3536 87° East 528 608 41,000  Level Kansas City Center
Thu 06:59:55 PM 39.7108 -93.1294 86° East 525 604 41,000  Level Kansas City Center
Thu 07:00:57 PM 39.7172 -92.9375 87° East 534 615 41,000  Level Kansas City Center
Thu 07:01:58 PM 39.7253 -92.7469 87° East 536 617 41,000  Level Kansas City Center
Thu 07:03:00 PM 39.7328 -92.5572 87° East 534 615 41,000  Level Kansas City Center
Thu 07:04:01 PM 39.7394 -92.3686 87° East 533 613 41,000  Level Kansas City Center
Thu 07:05:03 PM 39.7478 -92.1389 87° East 535 616 41,000  Level Kansas City Center
Thu 07:06:05 PM 39.7558 -91.9483 87° East 536 617 41,000  Level Kansas City Center
Thu 07:07:06 PM 39.7608 -91.7569 88° East 537 618 41,000  Level Kansas City Center
Thu 07:08:08 PM 39.7675 -91.5653 87° East 536 617 41,000  Level Kansas City Center
Thu 07:09:10 PM 39.7731 -91.3742 88° East 535 616 41,000  Level Kansas City Center
Thu 07:10:11 PM 39.7789 -91.1806 88° East 539 620 41,000  Level Kansas City Center
Thu 07:11:13 PM 39.7853 -90.9553 88° East 536 617 41,000  Level Kansas City Center
Thu 07:12:15 PM 39.7908 -90.7636 88° East 535 616 41,000  Level Kansas City Center
Thu 07:13:17 PM 39.7950 -90.5694 88° East 536 617 41,000  Level Kansas City Center
Thu 07:14:18 PM 39.7997 -90.3781 88° East 535 616 41,000  Level Kansas City Center
Thu 07:15:20 PM 39.8039 -90.1847 88° East 537 618 41,000  Level Kansas City Center
Thu 07:16:22 PM 39.8075 -89.9531 89° East 537 618 41,000  Level Kansas City Center
Thu 07:17:24 PM 39.8103 -89.7606 89° East 536 617 41,000  Level Kansas City Center
Thu 07:18:25 PM 39.8136 -89.5675 89° East 537 618 41,000  Level Kansas City Center
Thu 07:19:27 PM 39.8158 -89.3733 89° East 538 619 41,000  Level Kansas City Center
Thu 07:20:29 PM 39.8189 -89.1789 89° East 540 621 41,000  Level Kansas City Center
Thu 07:21:31 PM 39.8206 -88.9844 89° East 540 621 41,000  Level Kansas City Center
Thu 07:22:32 PM 39.8225 -88.7886 89° East 542 624 41,000  Level Kansas City Center
Thu 07:23:34 PM 39.8242 -88.5536 89° East 544 626 41,000  Level Kansas City Center
Thu 07:24:36 PM 39.8244 -88.3567 90° East 544 626 41,000  Level Kansas City Center
Thu 07:25:38 PM 39.8250 -88.1492 90° East 548 631 41,000  Level Kansas City Center
Thu 07:26:20 PM 39.8250 -88.0169 90° East 549 632 41,000  Level Indianapolis Center
Thu 07:27:21 PM 39.8247 -87.8175 90° East 552 635 41,000  Level Indianapolis Center
Thu 07:28:23 PM 39.8242 -87.6175 90° East 555 639 41,000  Level Indianapolis Center
Thu 07:29:25 PM 39.8242 -87.4178 90° East 555 639 41,000 -145 Level Indianapolis Center
Thu 07:30:27 PM 39.8222 -87.2169 91° East 557 641 40,700 -683 Descending Indianapolis Center
Thu 07:31:28 PM 39.8206 -86.9686 90° East 573 659 39,600 -878 Descending Indianapolis Center
Thu 07:32:30 PM 39.8189 -86.7614 91° East 574 661 38,900 -1,452 Descending Indianapolis Center
Thu 07:33:32 PM 39.8167 -86.5500 91° East 581 669 36,600 -1,415 Descending Indianapolis Center
Thu 07:34:33 PM 39.8222 -86.3383 88° East 581 669 36,000 -293 Descending Indianapolis Center
Thu 07:35:35 PM 39.8653 -86.1311 75° East 568 654 36,000 -677 Level Indianapolis Center
Thu 07:36:37 PM 39.9064 -85.9333 75° East 565 650 34,600 -2,244 Descending Indianapolis Center
Thu 07:37:38 PM 39.9497 -85.7289 74° East 583 671 31,400 -2,488 Descending Indianapolis Center
Thu 07:38:40 PM 39.9931 -85.5208 75° East 595 685 29,500 -1,171 Descending Indianapolis Center
Thu 07:39:41 PM 40.0356 -85.3142 75° East 593 682 29,000 -244 Descending Indianapolis Center
Thu 07:40:43 PM 40.0850 -85.0697 75° East 585 673 29,000 -677 Level Indianapolis Center
Thu 07:41:45 PM 40.1200 -84.8931 75° East 580 667 27,600 -1,415 Descending Indianapolis Center
Thu 07:42:46 PM 40.1608 -84.6864 75° East 585 673 26,100 -1,512 Descending Indianapolis Center
Thu 07:43:48 PM 40.2103 -84.4453 75° East 574 661 24,500 -1,210 Descending Indianapolis Center
Thu 07:44:50 PM 40.2475 -84.2514 76° East 551 634 23,600 -1,597 Descending Indianapolis Center
Thu 07:45:52 PM 40.2833 -84.0617 76° East 537 618 21,200 -2,341 Descending Indianapolis Center
Thu 07:46:53 PM 40.3197 -83.8806 75° East 516 594 18,800 -2,779 Descending Indianapolis Center
Thu 07:47:27 PM 40.3403 -83.7692 76° East 494 568 16,800 -3,097 Descending Indianapolis Center
Thu 07:47:55 PM 40.3539 -83.7097 73° East 488 562 15,600 -3,429 Descending Indianapolis Center
Thu 07:48:16 PM 40.3656 -83.6442 77° East 462 532 14,000 -3,581 Descending Indianapolis Center
Thu 07:48:57 PM 40.3844 -83.5500 75° East 458 527 11,900 -3,443 Descending Indianapolis Center
Thu 07:49:17 PM 40.3956 -83.4900 76° East 432 497 10,500 -1,869 Descending Indianapolis Center
Thu 07:49:58 PM 40.4114 -83.4047 76° East 422 486 10,000 -500 Descending Indianapolis Center
Thu 07:50:17 PM 40.3986 -83.3531 108° East 344 396 10,000  Level Indianapolis Center
Thu 07:51:00 PM 40.3667 -83.3008 129° Southeast 357 411 10,000 -109 Level Indianapolis Center
Thu 07:51:12 PM 40.3453 -83.2753 138° Southeast 322 371 9,900 -1,562 Descending Indianapolis Center
Thu 07:52:13 PM 40.2903 -83.1922 131° Southeast 298 343 8,100 -1,722 Descending Indianapolis Center
Thu 07:53:07 PM 40.2389 -83.1150 131° Southeast 298 343 6,600 -1,156 Descending Indianapolis Center
Thu 07:54:02 PM 40.1931 -83.0447 130° Southeast 284 327 6,000 -621 Descending Indianapolis Center
Thu 07:54:05 PM 40.1906 -83.0386 118° Southeast 292 336 6,000  Level Indianapolis Center
Thu 07:55:06 PM 40.1478 -82.9533 123° Southeast 284 327 6,000  Level Indianapolis Center
Thu 07:55:08 PM 40.1439 -82.9436 118° Southeast 286 329 6,000  Level Indianapolis Center
Thu 07:56:03 PM 40.1106 -82.8725 121° Southeast 272 313 6,000  Level Indianapolis Center
Thu 07:56:08 PM 40.1089 -82.8664 110° East 280 322 6,000 -716 Level Indianapolis Center
Thu 07:57:10 PM 40.0919 -82.7825 105° East 244 281 5,200 -882 Descending Indianapolis Center
Thu 07:57:16 PM 40.0889 -82.7681 105° East 234 269 5,000 -1,200 Descending Indianapolis Center
Thu 07:58:10 PM 40.0583 -82.7139 126° Southeast 217 250 4,000 -982 Descending Indianapolis Center
Thu 07:58:11 PM 40.0639 -82.7119 15° North 237 273 4,100 -762 Climbing Indianapolis Center
Thu 07:59:13 PM 40.0114 -82.7286 194° South 215 247 3,200 -1,000 Descending Indianapolis Center
Thu 07:59:17 PM 40.0039 -82.7353 214° Southwest 182 209 3,000 -814 Descending Indianapolis Center
Thu 08:00:12 PM 39.9950 -82.7831 256° West 134 154 2,400 -517 Descending Indianapolis Center
Thu 08:00:15 PM 39.9958 -82.7775 79° East 178 205 2,500 -778 Climbing Indianapolis Center
Thu 08:01:06 PM 39.9972 -82.8272 272° West 134 154 1,700 -885 Descending Indianapolis Center
Thu 08:01:16 PM 39.9989 -82.8344 287° West 147 169 1,600 -627 Descending Indianapolis Center
Thu 08:02:13 PM 40.0017 -82.8717 276° West 110 127 1,000 -484 Descending Indianapolis Center
Thu 08:02:18 PM 40.0006 -82.8669 107° East 130 150 1,100 1,200 Climbing Indianapolis Center

Login

Don't have an account? Register now (free) for customized features, flight alerts, and more!